sensor_id;sensor_type;location;lat;lon;timestamp;temperature;humidity
16402;DHT22;8310;44.626;11.176;2023-07-29T00:01:06;25.90;47.20
16402;DHT22;8310;44.626;11.176;2023-07-29T00:03:34;25.90;47.10
16402;DHT22;8310;44.626;11.176;2023-07-29T00:06:01;25.80;47.10
16402;DHT22;8310;44.626;11.176;2023-07-29T00:08:28;25.80;47.10
16402;DHT22;8310;44.626;11.176;2023-07-29T00:10:55;25.80;47.10
16402;DHT22;8310;44.626;11.176;2023-07-29T00:13:24;25.70;47.00
16402;DHT22;8310;44.626;11.176;2023-07-29T00:15:53;25.70;47.10
16402;DHT22;8310;44.626;11.176;2023-07-29T00:18:20;25.70;47.30
16402;DHT22;8310;44.626;11.176;2023-07-29T00:20:47;25.70;47.10
16402;DHT22;8310;44.626;11.176;2023-07-29T00:23:16;25.70;47.20
16402;DHT22;8310;44.626;11.176;2023-07-29T00:25:44;25.70;47.30
16402;DHT22;8310;44.626;11.176;2023-07-29T00:28:11;25.70;47.30
16402;DHT22;8310;44.626;11.176;2023-07-29T00:30:40;25.60;47.30
16402;DHT22;8310;44.626;11.176;2023-07-29T00:33:07;25.60;47.30
16402;DHT22;8310;44.626;11.176;2023-07-29T00:35:34;25.70;47.50
16402;DHT22;8310;44.626;11.176;2023-07-29T00:38:02;25.70;47.50
16402;DHT22;8310;44.626;11.176;2023-07-29T00:40:29;25.70;47.60
16402;DHT22;8310;44.626;11.176;2023-07-29T00:42:58;25.70;47.60
16402;DHT22;8310;44.626;11.176;2023-07-29T00:45:25;25.70;47.60
16402;DHT22;8310;44.626;11.176;2023-07-29T00:47:55;25.80;47.70
16402;DHT22;8310;44.626;11.176;2023-07-29T00:50:22;25.80;47.80
16402;DHT22;8310;44.626;11.176;2023-07-29T00:52:57;25.80;47.70
16402;DHT22;8310;44.626;11.176;2023-07-29T00:55:25;25.80;47.70
16402;DHT22;8310;44.626;11.176;2023-07-29T00:57:52;25.80;47.80
16402;DHT22;8310;44.626;11.176;2023-07-29T01:00:20;25.80;47.80
16402;DHT22;8310;44.626;11.176;2023-07-29T01:02:47;25.80;47.80
16402;DHT22;8310;44.626;11.176;2023-07-29T01:05:16;25.80;47.70
16402;DHT22;8310;44.626;11.176;2023-07-29T01:07:47;25.70;47.60
16402;DHT22;8310;44.626;11.176;2023-07-29T01:10:19;25.70;47.60
16402;DHT22;8310;44.626;11.176;2023-07-29T01:12:47;25.60;47.60
16402;DHT22;8310;44.626;11.176;2023-07-29T01:15:16;25.60;47.70
16402;DHT22;8310;44.626;11.176;2023-07-29T01:17:46;25.50;47.60
16402;DHT22;8310;44.626;11.176;2023-07-29T01:20:16;25.50;47.70
16402;DHT22;8310;44.626;11.176;2023-07-29T01:22:45;25.50;47.80
16402;DHT22;8310;44.626;11.176;2023-07-29T01:25:14;25.50;47.80
16402;DHT22;8310;44.626;11.176;2023-07-29T01:27:43;25.50;47.80
16402;DHT22;8310;44.626;11.176;2023-07-29T01:30:10;25.50;47.80
16402;DHT22;8310;44.626;11.176;2023-07-29T01:32:39;25.50;47.80
16402;DHT22;8310;44.626;11.176;2023-07-29T01:35:10;25.50;47.90
16402;DHT22;8310;44.626;11.176;2023-07-29T01:37:39;25.50;47.90
16402;DHT22;8310;44.626;11.176;2023-07-29T01:40:08;25.40;47.80
16402;DHT22;8310;44.626;11.176;2023-07-29T01:42:38;25.40;47.80
16402;DHT22;8310;44.626;11.176;2023-07-29T01:45:06;25.40;47.90
16402;DHT22;8310;44.626;11.176;2023-07-29T01:47:34;25.40;47.90
16402;DHT22;8310;44.626;11.176;2023-07-29T01:50:01;25.40;47.90
16402;DHT22;8310;44.626;11.176;2023-07-29T01:52:29;25.40;47.90
16402;DHT22;8310;44.626;11.176;2023-07-29T01:54:55;25.40;47.90
16402;DHT22;8310;44.626;11.176;2023-07-29T01:57:23;25.40;47.90
16402;DHT22;8310;44.626;11.176;2023-07-29T01:59:52;25.40;47.90
16402;DHT22;8310;44.626;11.176;2023-07-29T02:02:20;25.40;47.90
16402;DHT22;8310;44.626;11.176;2023-07-29T02:04:47;25.30;47.70
16402;DHT22;8310;44.626;11.176;2023-07-29T02:07:16;25.20;47.60
16402;DHT22;8310;44.626;11.176;2023-07-29T02:09:44;25.10;47.60
16402;DHT22;8310;44.626;11.176;2023-07-29T02:12:11;25.10;47.60
16402;DHT22;8310;44.626;11.176;2023-07-29T02:14:39;25.10;47.60
16402;DHT22;8310;44.626;11.176;2023-07-29T02:17:08;25.00;47.60
16402;DHT22;8310;44.626;11.176;2023-07-29T02:19:38;25.00;47.70
16402;DHT22;8310;44.626;11.176;2023-07-29T02:22:06;25.00;47.80
16402;DHT22;8310;44.626;11.176;2023-07-29T02:24:33;25.00;47.90
16402;DHT22;8310;44.626;11.176;2023-07-29T02:27:00;25.00;47.90
16402;DHT22;8310;44.626;11.176;2023-07-29T02:29:27;25.00;48.00
16402;DHT22;8310;44.626;11.176;2023-07-29T02:31:55;25.00;48.00
16402;DHT22;8310;44.626;11.176;2023-07-29T02:34:24;25.00;48.00
16402;DHT22;8310;44.626;11.176;2023-07-29T02:36:52;25.00;48.00
16402;DHT22;8310;44.626;11.176;2023-07-29T02:39:19;25.00;48.00
16402;DHT22;8310;44.626;11.176;2023-07-29T02:41:46;24.90;48.00
16402;DHT22;8310;44.626;11.176;2023-07-29T02:44:13;25.00;48.00
16402;DHT22;8310;44.626;11.176;2023-07-29T02:46:41;24.90;48.00
16402;DHT22;8310;44.626;11.176;2023-07-29T02:49:09;24.90;48.00
16402;DHT22;8310;44.626;11.176;2023-07-29T02:51:38;24.80;47.90
16402;DHT22;8310;44.626;11.176;2023-07-29T02:54:04;24.80;47.90
16402;DHT22;8310;44.626;11.176;2023-07-29T02:56:31;24.80;48.00
16402;DHT22;8310;44.626;11.176;2023-07-29T02:58:59;24.80;48.00
16402;DHT22;8310;44.626;11.176;2023-07-29T03:01:26;24.70;47.90
16402;DHT22;8310;44.626;11.176;2023-07-29T03:03:53;24.60;47.70
16402;DHT22;8310;44.626;11.176;2023-07-29T03:06:20;24.50;47.50
16402;DHT22;8310;44.626;11.176;2023-07-29T03:08:49;24.40;47.70
16402;DHT22;8310;44.626;11.176;2023-07-29T03:11:16;24.40;47.80
16402;DHT22;8310;44.626;11.176;2023-07-29T03:13:44;24.30;47.90
16402;DHT22;8310;44.626;11.176;2023-07-29T03:16:12;24.30;48.00
16402;DHT22;8310;44.626;11.176;2023-07-29T03:18:39;24.30;48.00
16402;DHT22;8310;44.626;11.176;2023-07-29T03:21:07;24.30;48.10
16402;DHT22;8310;44.626;11.176;2023-07-29T03:23:35;24.20;48.00
16402;DHT22;8310;44.626;11.176;2023-07-29T03:26:04;24.20;48.00
16402;DHT22;8310;44.626;11.176;2023-07-29T03:28:35;24.20;47.90
16402;DHT22;8310;44.626;11.176;2023-07-29T03:31:03;24.10;47.90
16402;DHT22;8310;44.626;11.176;2023-07-29T03:33:30;24.10;48.00
16402;DHT22;8310;44.626;11.176;2023-07-29T03:35:58;24.00;48.00
16402;DHT22;8310;44.626;11.176;2023-07-29T03:38:25;24.00;48.60
16402;DHT22;8310;44.626;11.176;2023-07-29T03:40:52;24.00;48.10
16402;DHT22;8310;44.626;11.176;2023-07-29T03:43:22;24.00;48.10
16402;DHT22;8310;44.626;11.176;2023-07-29T03:45:49;24.00;48.10
16402;DHT22;8310;44.626;11.176;2023-07-29T03:48:16;24.00;48.20
16402;DHT22;8310;44.626;11.176;2023-07-29T03:50:44;24.00;48.30
16402;DHT22;8310;44.626;11.176;2023-07-29T03:53:13;24.00;48.20
16402;DHT22;8310;44.626;11.176;2023-07-29T03:55:40;24.00;48.20
16402;DHT22;8310;44.626;11.176;2023-07-29T03:58:08;24.00;48.20
16402;DHT22;8310;44.626;11.176;2023-07-29T04:00:37;24.00;48.40
16402;DHT22;8310;44.626;11.176;2023-07-29T04:03:04;24.00;48.40
16402;DHT22;8310;44.626;11.176;2023-07-29T04:05:32;24.00;48.30
16402;DHT22;8310;44.626;11.176;2023-07-29T04:07:59;23.90;48.20
16402;DHT22;8310;44.626;11.176;2023-07-29T04:10:26;23.90;48.20
16402;DHT22;8310;44.626;11.176;2023-07-29T04:12:53;23.80;48.30
16402;DHT22;8310;44.626;11.176;2023-07-29T04:15:21;23.70;48.20
16402;DHT22;8310;44.626;11.176;2023-07-29T04:17:50;23.70;48.20
16402;DHT22;8310;44.626;11.176;2023-07-29T04:20:17;23.60;48.10
16402;DHT22;8310;44.626;11.176;2023-07-29T04:22:44;23.50;48.00
16402;DHT22;8310;44.626;11.176;2023-07-29T04:25:12;23.30;48.10
16402;DHT22;8310;44.626;11.176;2023-07-29T04:27:39;23.20;48.20
16402;DHT22;8310;44.626;11.176;2023-07-29T04:30:10;23.20;48.30
16402;DHT22;8310;44.626;11.176;2023-07-29T04:32:38;23.20;48.50
16402;DHT22;8310;44.626;11.176;2023-07-29T04:35:07;23.20;48.70
16402;DHT22;8310;44.626;11.176;2023-07-29T04:37:35;23.30;48.90
16402;DHT22;8310;44.626;11.176;2023-07-29T04:40:02;23.40;48.90
16402;DHT22;8310;44.626;11.176;2023-07-29T04:42:30;23.50;49.00
16402;DHT22;8310;44.626;11.176;2023-07-29T04:44:57;23.60;49.10
16402;DHT22;8310;44.626;11.176;2023-07-29T04:47:24;23.70;49.20
16402;DHT22;8310;44.626;11.176;2023-07-29T04:49:52;23.80;49.20
16402;DHT22;8310;44.626;11.176;2023-07-29T04:52:21;23.90;49.30
16402;DHT22;8310;44.626;11.176;2023-07-29T04:54:49;24.00;49.40
16402;DHT22;8310;44.626;11.176;2023-07-29T04:57:16;24.10;49.50
16402;DHT22;8310;44.626;11.176;2023-07-29T04:59:44;24.20;49.50
16402;DHT22;8310;44.626;11.176;2023-07-29T05:02:12;24.30;49.60
16402;DHT22;8310;44.626;11.176;2023-07-29T05:04:39;24.40;49.70
16402;DHT22;8310;44.626;11.176;2023-07-29T05:07:06;24.50;49.70
16402;DHT22;8310;44.626;11.176;2023-07-29T05:09:34;24.50;49.50
16402;DHT22;8310;44.626;11.176;2023-07-29T05:12:02;24.50;50.20
16402;DHT22;8310;44.626;11.176;2023-07-29T05:14:29;24.60;49.80
16402;DHT22;8310;44.626;11.176;2023-07-29T05:16:56;24.70;50.10
16402;DHT22;8310;44.626;11.176;2023-07-29T05:19:24;24.80;50.20
16402;DHT22;8310;44.626;11.176;2023-07-29T05:21:51;25.00;50.40
16402;DHT22;8310;44.626;11.176;2023-07-29T05:24:18;25.10;50.50
16402;DHT22;8310;44.626;11.176;2023-07-29T05:26:47;25.30;50.70
16402;DHT22;8310;44.626;11.176;2023-07-29T05:29:15;25.40;50.80
16402;DHT22;8310;44.626;11.176;2023-07-29T05:31:42;25.50;50.80
16402;DHT22;8310;44.626;11.176;2023-07-29T05:34:10;25.60;50.60
16402;DHT22;8310;44.626;11.176;2023-07-29T05:36:37;25.70;50.80
16402;DHT22;8310;44.626;11.176;2023-07-29T05:39:05;25.70;50.40
16402;DHT22;8310;44.626;11.176;2023-07-29T05:41:32;25.70;50.40
16402;DHT22;8310;44.626;11.176;2023-07-29T05:44:02;25.80;50.40
16402;DHT22;8310;44.626;11.176;2023-07-29T05:46:30;25.80;50.40
16402;DHT22;8310;44.626;11.176;2023-07-29T05:48:57;25.80;50.40
16402;DHT22;8310;44.626;11.176;2023-07-29T05:51:24;25.80;50.30
16402;DHT22;8310;44.626;11.176;2023-07-29T05:53:52;25.80;50.30
16402;DHT22;8310;44.626;11.176;2023-07-29T05:56:19;25.90;50.50
16402;DHT22;8310;44.626;11.176;2023-07-29T05:58:47;25.90;50.40
16402;DHT22;8310;44.626;11.176;2023-07-29T06:01:15;26.00;50.40
16402;DHT22;8310;44.626;11.176;2023-07-29T06:03:43;26.00;50.40
16402;DHT22;8310;44.626;11.176;2023-07-29T06:06:10;26.00;50.50
16402;DHT22;8310;44.626;11.176;2023-07-29T06:08:38;26.10;50.40
16402;DHT22;8310;44.626;11.176;2023-07-29T06:11:05;26.10;50.40
16402;DHT22;8310;44.626;11.176;2023-07-29T06:13:32;26.20;50.50
16402;DHT22;8310;44.626;11.176;2023-07-29T06:16:00;26.30;50.60
16402;DHT22;8310;44.626;11.176;2023-07-29T06:18:28;26.30;50.60
16402;DHT22;8310;44.626;11.176;2023-07-29T06:20:56;26.40;50.80
16402;DHT22;8310;44.626;11.176;2023-07-29T06:23:24;26.40;50.60
16402;DHT22;8310;44.626;11.176;2023-07-29T06:25:51;26.50;50.60
16402;DHT22;8310;44.626;11.176;2023-07-29T06:28:19;26.50;50.70
16402;DHT22;8310;44.626;11.176;2023-07-29T06:30:46;26.60;50.70
16402;DHT22;8310;44.626;11.176;2023-07-29T06:33:13;26.70;50.80
16402;DHT22;8310;44.626;11.176;2023-07-29T06:35:42;26.80;51.20
16402;DHT22;8310;44.626;11.176;2023-07-29T06:38:09;26.90;51.40
16402;DHT22;8310;44.626;11.176;2023-07-29T06:40:43;27.10;51.60
16402;DHT22;8310;44.626;11.176;2023-07-29T06:43:10;27.30;51.80
16402;DHT22;8310;44.626;11.176;2023-07-29T06:45:37;27.40;51.90
16402;DHT22;8310;44.626;11.176;2023-07-29T06:48:05;27.60;52.00
16402;DHT22;8310;44.626;11.176;2023-07-29T06:50:33;27.80;52.00
16402;DHT22;8310;44.626;11.176;2023-07-29T06:53:02;27.90;52.10
16402;DHT22;8310;44.626;11.176;2023-07-29T06:55:29;28.10;52.10
16402;DHT22;8310;44.626;11.176;2023-07-29T06:57:57;28.30;52.20
16402;DHT22;8310;44.626;11.176;2023-07-29T07:00:24;28.40;52.20
16402;DHT22;8310;44.626;11.176;2023-07-29T07:02:51;28.60;52.20
16402;DHT22;8310;44.626;11.176;2023-07-29T07:05:19;28.70;52.20
16402;DHT22;8310;44.626;11.176;2023-07-29T07:07:46;28.80;52.30
16402;DHT22;8310;44.626;11.176;2023-07-29T07:10:17;29.00;52.30
16402;DHT22;8310;44.626;11.176;2023-07-29T07:12:45;29.10;52.40
16402;DHT22;8310;44.626;11.176;2023-07-29T07:15:12;29.20;52.40
16402;DHT22;8310;44.626;11.176;2023-07-29T07:17:40;29.30;52.40
16402;DHT22;8310;44.626;11.176;2023-07-29T07:20:08;29.40;52.40
16402;DHT22;8310;44.626;11.176;2023-07-29T07:22:35;29.50;52.50
16402;DHT22;8310;44.626;11.176;2023-07-29T07:25:03;29.60;52.50
16402;DHT22;8310;44.626;11.176;2023-07-29T07:27:32;29.80;52.50
16402;DHT22;8310;44.626;11.176;2023-07-29T07:30:00;29.80;52.50
16402;DHT22;8310;44.626;11.176;2023-07-29T07:32:27;30.00;52.60
16402;DHT22;8310;44.626;11.176;2023-07-29T07:34:53;30.10;52.50
16402;DHT22;8310;44.626;11.176;2023-07-29T07:37:21;30.20;52.60
16402;DHT22;8310;44.626;11.176;2023-07-29T07:39:48;30.30;52.60
16402;DHT22;8310;44.626;11.176;2023-07-29T07:42:15;30.40;52.60
16402;DHT22;8310;44.626;11.176;2023-07-29T07:44:45;30.50;52.50
16402;DHT22;8310;44.626;11.176;2023-07-29T07:47:12;30.60;52.50
16402;DHT22;8310;44.626;11.176;2023-07-29T07:49:39;30.70;52.60
16402;DHT22;8310;44.626;11.176;2023-07-29T07:52:06;30.70;52.60
16402;DHT22;8310;44.626;11.176;2023-07-29T07:54:34;30.80;52.60
16402;DHT22;8310;44.626;11.176;2023-07-29T07:57:02;30.90;52.50
16402;DHT22;8310;44.626;11.176;2023-07-29T07:59:29;31.00;52.60
16402;DHT22;8310;44.626;11.176;2023-07-29T08:01:58;31.00;52.60
16402;DHT22;8310;44.626;11.176;2023-07-29T08:04:26;31.10;52.60
16402;DHT22;8310;44.626;11.176;2023-07-29T08:06:53;31.20;52.60
16402;DHT22;8310;44.626;11.176;2023-07-29T08:09:20;31.30;52.60
16402;DHT22;8310;44.626;11.176;2023-07-29T08:11:47;31.30;52.60
16402;DHT22;8310;44.626;11.176;2023-07-29T08:14:15;31.40;52.70
16402;DHT22;8310;44.626;11.176;2023-07-29T08:16:42;31.60;52.70
16402;DHT22;8310;44.626;11.176;2023-07-29T08:19:11;31.60;52.80
16402;DHT22;8310;44.626;11.176;2023-07-29T08:21:38;31.70;52.70
16402;DHT22;8310;44.626;11.176;2023-07-29T08:24:06;31.80;52.60
16402;DHT22;8310;44.626;11.176;2023-07-29T08:26:34;31.80;52.50
16402;DHT22;8310;44.626;11.176;2023-07-29T08:29:01;31.90;52.70
16402;DHT22;8310;44.626;11.176;2023-07-29T08:31:28;32.00;52.80
16402;DHT22;8310;44.626;11.176;2023-07-29T08:33:56;32.00;52.70
16402;DHT22;8310;44.626;11.176;2023-07-29T08:36:25;32.10;52.70
16402;DHT22;8310;44.626;11.176;2023-07-29T08:38:52;32.20;52.80
16402;DHT22;8310;44.626;11.176;2023-07-29T08:41:26;32.30;52.80
16402;DHT22;8310;44.626;11.176;2023-07-29T08:43:59;32.30;52.60
16402;DHT22;8310;44.626;11.176;2023-07-29T08:46:28;32.40;52.40
16402;DHT22;8310;44.626;11.176;2023-07-29T08:48:56;32.30;52.30
16402;DHT22;8310;44.626;11.176;2023-07-29T08:51:25;32.30;52.40
16402;DHT22;8310;44.626;11.176;2023-07-29T08:53:53;32.40;52.60
16402;DHT22;8310;44.626;11.176;2023-07-29T08:56:20;32.50;52.70
16402;DHT22;8310;44.626;11.176;2023-07-29T08:58:48;32.60;52.60
16402;DHT22;8310;44.626;11.176;2023-07-29T09:01:16;32.70;52.50
16402;DHT22;8310;44.626;11.176;2023-07-29T09:03:44;32.70;52.30
16402;DHT22;8310;44.626;11.176;2023-07-29T09:06:11;32.70;52.30
16402;DHT22;8310;44.626;11.176;2023-07-29T09:08:40;32.80;52.50
16402;DHT22;8310;44.626;11.176;2023-07-29T09:11:07;32.90;52.70
16402;DHT22;8310;44.626;11.176;2023-07-29T09:13:35;32.90;52.70
16402;DHT22;8310;44.626;11.176;2023-07-29T09:16:02;33.10;52.70
16402;DHT22;8310;44.626;11.176;2023-07-29T09:18:31;33.10;52.60
16402;DHT22;8310;44.626;11.176;2023-07-29T09:20:58;33.20;52.60
16402;DHT22;8310;44.626;11.176;2023-07-29T09:23:25;33.20;52.00
16402;DHT22;8310;44.626;11.176;2023-07-29T09:26:01;33.10;51.60
16402;DHT22;8310;44.626;11.176;2023-07-29T09:28:32;32.90;51.60
16402;DHT22;8310;44.626;11.176;2023-07-29T09:31:00;32.80;51.80
16402;DHT22;8310;44.626;11.176;2023-07-29T09:33:27;32.80;52.10
16402;DHT22;8310;44.626;11.176;2023-07-29T09:35:55;32.90;53.00
16402;DHT22;8310;44.626;11.176;2023-07-29T09:38:26;33.10;52.60
16402;DHT22;8310;44.626;11.176;2023-07-29T09:40:54;33.20;52.60
16402;DHT22;8310;44.626;11.176;2023-07-29T09:43:26;33.30;52.60
16402;DHT22;8310;44.626;11.176;2023-07-29T09:45:56;33.40;52.70
16402;DHT22;8310;44.626;11.176;2023-07-29T09:48:26;33.50;52.80
16402;DHT22;8310;44.626;11.176;2023-07-29T09:50:54;33.70;52.90
16402;DHT22;8310;44.626;11.176;2023-07-29T09:53:21;33.80;52.90
16402;DHT22;8310;44.626;11.176;2023-07-29T09:55:48;33.90;52.90
16402;DHT22;8310;44.626;11.176;2023-07-29T09:58:18;34.00;52.70
16402;DHT22;8310;44.626;11.176;2023-07-29T10:00:50;34.00;52.60
16402;DHT22;8310;44.626;11.176;2023-07-29T10:03:18;34.00;52.50
16402;DHT22;8310;44.626;11.176;2023-07-29T10:05:46;34.00;52.50
16402;DHT22;8310;44.626;11.176;2023-07-29T10:08:13;34.10;52.70
16402;DHT22;8310;44.626;11.176;2023-07-29T10:10:41;34.20;52.90
16402;DHT22;8310;44.626;11.176;2023-07-29T10:13:09;34.40;53.10
16402;DHT22;8310;44.626;11.176;2023-07-29T10:15:36;34.60;53.20
16402;DHT22;8310;44.626;11.176;2023-07-29T10:18:05;34.70;53.10
16402;DHT22;8310;44.626;11.176;2023-07-29T10:20:32;34.90;53.00
16402;DHT22;8310;44.626;11.176;2023-07-29T10:23:01;35.00;52.80
16402;DHT22;8310;44.626;11.176;2023-07-29T10:25:31;35.00;52.30
16402;DHT22;8310;44.626;11.176;2023-07-29T10:28:04;34.90;51.90
16402;DHT22;8310;44.626;11.176;2023-07-29T10:30:31;34.80;51.70
16402;DHT22;8310;44.626;11.176;2023-07-29T10:32:59;34.70;51.50
16402;DHT22;8310;44.626;11.176;2023-07-29T10:35:30;34.50;51.60
16402;DHT22;8310;44.626;11.176;2023-07-29T10:37:57;34.50;51.90
16402;DHT22;8310;44.626;11.176;2023-07-29T10:40:24;34.50;51.90
16402;DHT22;8310;44.626;11.176;2023-07-29T10:43:02;34.50;51.90
16402;DHT22;8310;44.626;11.176;2023-07-29T10:45:36;34.50;51.80
16402;DHT22;8310;44.626;11.176;2023-07-29T10:48:05;34.50;51.50
16402;DHT22;8310;44.626;11.176;2023-07-29T10:50:33;34.40;51.50
16402;DHT22;8310;44.626;11.176;2023-07-29T10:53:00;34.40;51.70
16402;DHT22;8310;44.626;11.176;2023-07-29T10:55:28;34.30;51.80
16402;DHT22;8310;44.626;11.176;2023-07-29T10:58:06;34.40;51.70
16402;DHT22;8310;44.626;11.176;2023-07-29T11:00:34;34.30;51.30
16402;DHT22;8310;44.626;11.176;2023-07-29T11:03:02;34.20;51.30
16402;DHT22;8310;44.626;11.176;2023-07-29T11:05:56;34.10;51.50
16402;DHT22;8310;44.626;11.176;2023-07-29T11:08:31;34.10;51.80
16402;DHT22;8310;44.626;11.176;2023-07-29T11:11:01;34.20;52.10
16402;DHT22;8310;44.626;11.176;2023-07-29T11:13:27;34.40;52.20
16402;DHT22;8310;44.626;11.176;2023-07-29T11:15:55;34.50;52.10
16402;DHT22;8310;44.626;11.176;2023-07-29T11:18:25;34.70;52.20
16402;DHT22;8310;44.626;11.176;2023-07-29T11:20:55;34.70;52.20
16402;DHT22;8310;44.626;11.176;2023-07-29T11:23:27;34.80;52.20
16402;DHT22;8310;44.626;11.176;2023-07-29T11:25:55;34.90;52.10
16402;DHT22;8310;44.626;11.176;2023-07-29T11:28:22;34.90;52.00
16402;DHT22;8310;44.626;11.176;2023-07-29T11:30:50;34.90;52.00
16402;DHT22;8310;44.626;11.176;2023-07-29T11:33:17;35.00;52.20
16402;DHT22;8310;44.626;11.176;2023-07-29T11:35:45;35.10;52.00
16402;DHT22;8310;44.626;11.176;2023-07-29T11:38:16;35.10;51.50
16402;DHT22;8310;44.626;11.176;2023-07-29T11:40:43;35.00;51.40
16402;DHT22;8310;44.626;11.176;2023-07-29T11:43:16;35.00;51.60
16402;DHT22;8310;44.626;11.176;2023-07-29T11:45:44;35.00;51.80
16402;DHT22;8310;44.626;11.176;2023-07-29T11:48:11;35.20;51.90
16402;DHT22;8310;44.626;11.176;2023-07-29T11:50:38;35.20;51.70
16402;DHT22;8310;44.626;11.176;2023-07-29T11:53:06;35.20;51.70
16402;DHT22;8310;44.626;11.176;2023-07-29T11:55:35;35.30;52.00
16402;DHT22;8310;44.626;11.176;2023-07-29T11:58:02;35.40;52.00
16402;DHT22;8310;44.626;11.176;2023-07-29T12:00:31;35.50;52.00
16402;DHT22;8310;44.626;11.176;2023-07-29T12:02:58;35.50;52.00
16402;DHT22;8310;44.626;11.176;2023-07-29T12:05:26;35.60;52.10
16402;DHT22;8310;44.626;11.176;2023-07-29T12:07:54;35.70;52.20
16402;DHT22;8310;44.626;11.176;2023-07-29T12:10:22;35.80;52.10
16402;DHT22;8310;44.626;11.176;2023-07-29T12:12:50;35.90;52.00
16402;DHT22;8310;44.626;11.176;2023-07-29T12:15:24;35.90;51.90
16402;DHT22;8310;44.626;11.176;2023-07-29T12:17:55;35.90;51.60
16402;DHT22;8310;44.626;11.176;2023-07-29T12:20:23;35.80;51.30
16402;DHT22;8310;44.626;11.176;2023-07-29T12:22:51;35.70;51.30
16402;DHT22;8310;44.626;11.176;2023-07-29T12:25:19;35.60;51.30
16402;DHT22;8310;44.626;11.176;2023-07-29T12:27:46;35.60;51.60
16402;DHT22;8310;44.626;11.176;2023-07-29T12:30:15;35.70;51.80
16402;DHT22;8310;44.626;11.176;2023-07-29T12:32:44;35.80;51.90
16402;DHT22;8310;44.626;11.176;2023-07-29T12:35:11;35.80;51.70
16402;DHT22;8310;44.626;11.176;2023-07-29T12:37:39;35.90;51.70
16402;DHT22;8310;44.626;11.176;2023-07-29T12:40:09;35.90;51.10
16402;DHT22;8310;44.626;11.176;2023-07-29T12:42:36;35.80;50.40
16402;DHT22;8310;44.626;11.176;2023-07-29T12:45:04;35.60;50.20
16402;DHT22;8310;44.626;11.176;2023-07-29T12:47:33;35.30;50.20
16402;DHT22;8310;44.626;11.176;2023-07-29T12:50:01;35.30;50.80
16402;DHT22;8310;44.626;11.176;2023-07-29T12:52:28;35.40;51.40
16402;DHT22;8310;44.626;11.176;2023-07-29T12:54:55;35.50;51.60
16402;DHT22;8310;44.626;11.176;2023-07-29T12:57:23;35.70;51.70
16402;DHT22;8310;44.626;11.176;2023-07-29T12:59:51;35.80;51.80
16402;DHT22;8310;44.626;11.176;2023-07-29T13:02:18;36.00;51.90
16402;DHT22;8310;44.626;11.176;2023-07-29T13:04:48;36.10;51.80
16402;DHT22;8310;44.626;11.176;2023-07-29T13:07:16;36.20;51.70
16402;DHT22;8310;44.626;11.176;2023-07-29T13:09:43;36.30;51.80
16402;DHT22;8310;44.626;11.176;2023-07-29T13:12:10;36.30;51.40
16402;DHT22;8310;44.626;11.176;2023-07-29T13:14:39;36.30;51.00
16402;DHT22;8310;44.626;11.176;2023-07-29T13:17:06;36.20;51.00
16402;DHT22;8310;44.626;11.176;2023-07-29T13:19:33;36.20;51.10
16402;DHT22;8310;44.626;11.176;2023-07-29T13:22:02;36.20;51.00
16402;DHT22;8310;44.626;11.176;2023-07-29T13:24:30;36.10;51.00
16402;DHT22;8310;44.626;11.176;2023-07-29T13:26:57;36.20;51.00
16402;DHT22;8310;44.626;11.176;2023-07-29T13:29:25;36.10;50.80
16402;DHT22;8310;44.626;11.176;2023-07-29T13:31:52;36.10;50.80
16402;DHT22;8310;44.626;11.176;2023-07-29T13:34:20;36.10;51.10
16402;DHT22;8310;44.626;11.176;2023-07-29T13:36:47;36.10;51.30
16402;DHT22;8310;44.626;11.176;2023-07-29T13:39:16;36.20;51.30
16402;DHT22;8310;44.626;11.176;2023-07-29T13:41:43;36.20;51.00
16402;DHT22;8310;44.626;11.176;2023-07-29T13:44:11;36.30;50.90
16402;DHT22;8310;44.626;11.176;2023-07-29T13:46:38;36.30;51.10
16402;DHT22;8310;44.626;11.176;2023-07-29T13:49:06;36.30;51.20
16402;DHT22;8310;44.626;11.176;2023-07-29T13:51:33;36.40;51.10
16402;DHT22;8310;44.626;11.176;2023-07-29T13:54:00;36.40;51.20
16402;DHT22;8310;44.626;11.176;2023-07-29T13:56:29;36.40;51.20
16402;DHT22;8310;44.626;11.176;2023-07-29T13:59:02;36.50;51.20
16402;DHT22;8310;44.626;11.176;2023-07-29T14:01:30;36.60;51.40
16402;DHT22;8310;44.626;11.176;2023-07-29T14:03:57;36.70;51.50
16402;DHT22;8310;44.626;11.176;2023-07-29T14:06:24;36.80;51.50
16402;DHT22;8310;44.626;11.176;2023-07-29T14:08:52;36.90;51.30
16402;DHT22;8310;44.626;11.176;2023-07-29T14:11:19;37.00;51.20
16402;DHT22;8310;44.626;11.176;2023-07-29T14:13:48;37.00;51.30
16402;DHT22;8310;44.626;11.176;2023-07-29T14:16:16;37.10;51.30
16402;DHT22;8310;44.626;11.176;2023-07-29T14:18:43;37.20;51.30
16402;DHT22;8310;44.626;11.176;2023-07-29T14:21:10;37.20;51.20
16402;DHT22;8310;44.626;11.176;2023-07-29T14:23:37;37.20;51.10
16402;DHT22;8310;44.626;11.176;2023-07-29T14:26:05;37.30;51.10
16402;DHT22;8310;44.626;11.176;2023-07-29T14:28:35;37.30;50.70
16402;DHT22;8310;44.626;11.176;2023-07-29T14:31:04;37.20;50.60
16402;DHT22;8310;44.626;11.176;2023-07-29T14:33:31;37.20;50.80
16402;DHT22;8310;44.626;11.176;2023-07-29T14:35:58;37.20;50.80
16402;DHT22;8310;44.626;11.176;2023-07-29T14:38:29;37.20;50.80
16402;DHT22;8310;44.626;11.176;2023-07-29T14:40:56;37.20;50.80
16402;DHT22;8310;44.626;11.176;2023-07-29T14:43:24;37.20;50.70
16402;DHT22;8310;44.626;11.176;2023-07-29T14:45:51;37.20;50.70
16402;DHT22;8310;44.626;11.176;2023-07-29T14:48:20;37.20;50.50
16402;DHT22;8310;44.626;11.176;2023-07-29T14:50:47;37.20;50.40
16402;DHT22;8310;44.626;11.176;2023-07-29T14:53:14;37.10;50.40
16402;DHT22;8310;44.626;11.176;2023-07-29T14:55:41;37.10;50.60
16402;DHT22;8310;44.626;11.176;2023-07-29T14:58:08;37.10;50.70
16402;DHT22;8310;44.626;11.176;2023-07-29T15:00:35;37.20;50.80
16402;DHT22;8310;44.626;11.176;2023-07-29T15:03:03;37.20;50.50
16402;DHT22;8310;44.626;11.176;2023-07-29T15:05:31;37.20;50.40
16402;DHT22;8310;44.626;11.176;2023-07-29T15:07:59;37.20;50.50
16402;DHT22;8310;44.626;11.176;2023-07-29T15:10:26;37.20;50.30
16402;DHT22;8310;44.626;11.176;2023-07-29T15:12:53;37.10;50.30
16402;DHT22;8310;44.626;11.176;2023-07-29T15:15:21;37.10;50.20
16402;DHT22;8310;44.626;11.176;2023-07-29T15:17:48;37.10;50.20
16402;DHT22;8310;44.626;11.176;2023-07-29T15:20:15;37.10;50.30
16402;DHT22;8310;44.626;11.176;2023-07-29T15:22:44;37.10;50.50
16402;DHT22;8310;44.626;11.176;2023-07-29T15:25:12;37.10;50.50
16402;DHT22;8310;44.626;11.176;2023-07-29T15:27:39;37.20;50.50
16402;DHT22;8310;44.626;11.176;2023-07-29T15:30:07;37.30;50.60
16402;DHT22;8310;44.626;11.176;2023-07-29T15:32:34;37.20;50.40
16402;DHT22;8310;44.626;11.176;2023-07-29T15:35:01;37.30;50.60